Hlavní strana
METAR-TAF:

METAR-TAF

Letiště :

Kalmar, Švédsko

zeměpisná šířka: 56-44N, zeměpisná délka: 016-18E, výška: 16 m

Aktuální stav počasí

Zpráva byla vytvořena před 37 minutami, v 07:20 UTC
Severoseverovýchodní vítr 8 kt
Teplota 13°C
Vlhkost vzduchu 72%
Tlak 1013 hPa
Viditelnost 10 km a více
Žádná oblačnost pod 1500 m, nevyskytují se cumulonimby.

METAR: ESMQ 260720Z 03008KT CAVOK 13/08 Q1013

Čas: 09:57 (07:57 UTC)

Předpověď počasí

Zpráva byla vytvořena před 2 hodinami a 27 minutami, v 05:30 UTC
Předpověď platná od 26 v 06 UTC do 26 v 15 UTC
Severní vítr 8 kt
Viditelnost 10 km a více
Žádná oblačnost pod 1500 m, nevyskytují se cumulonimby.
Změna
od 26 v 07 UTC do 26 v 09 UTC
Severovýchodní vítr 10 kt

TAF: ESMQ 260530Z 2606/2615 35008KT CAVOK BECMG 2607/2609 05010KT

Stav a předpovědi počasí z více než 4 000 letišť (zprávy METAR a TAF).

Červené a žluté tečky na mapě představují dostupné meteorologické stanice.

Když kurzor umístíte na tečku, zobrazí se název stanice.

Pak kliknutím zobrazíte stav a předpověď počasí.

Chcete-li změnit mapu, kliknutím na zelené tlačítko se znaménkem +mapu přiblížíte, kliknutím na zelené tlačítko se znaménkem – mapu oddálíte a kliknutím na zelené šipky přejdete na sousední mapy.


METAR-TAF: